Time;durP1;ratioP1;P1;durP2;ratioP2;P2;SDS_P1;SDS_P2;PMS_P1;PMS_P2;Temp;Humidity;BMP_temperature;BMP_pressure;BME280_temperature;BME280_humidity;BME280_pressure;Samples;Min_cycle;Max_cycle;Signal;HPM_P1;HPM_P2
2022/06/26 00:02:18;;;;;;;11.75;7.50;;;;;;;16.92;54.14;100375.81;5037772;28;20463;-68
2022/06/26 00:04:47;;;;;;;9.45;8.55;;;;;;;16.85;54.20;100364.16;5045673;28;20088;-69
2022/06/26 00:07:15;;;;;;;8.15;7.45;;;;;;;16.75;54.37;100360.50;5040176;28;20049;-67
2022/06/26 00:09:43;;;;;;;8.00;7.20;;;;;;;16.84;54.37;100362.50;5034890;28;20077;-68
2022/06/26 00:12:10;;;;;;;8.40;7.60;;;;;;;16.72;54.07;100355.50;5050501;28;20135;-66
2022/06/26 00:14:36;;;;;;;7.60;6.95;;;;;;;16.74;54.46;100358.81;5048075;28;20084;-68
2022/06/26 00:17:04;;;;;;;7.93;7.20;;;;;;;16.65;54.59;100355.13;5039322;28;20073;-67
2022/06/26 00:19:31;;;;;;;9.63;7.93;;;;;;;16.42;54.31;100317.75;5039515;28;20123;-68
2022/06/26 00:21:58;;;;;;;8.60;7.90;;;;;;;16.59;54.41;100345.16;5037706;28;20579;-68
2022/06/26 00:24:24;;;;;;;8.38;7.65;;;;;;;16.58;54.40;100343.47;5036005;28;20049;-68
2022/06/26 00:26:51;;;;;;;14.77;10.35;;;;;;;16.60;54.34;100352.44;5052249;28;20127;-68
2022/06/26 00:29:18;;;;;;;8.90;7.95;;;;;;;16.68;54.48;100357.28;5039505;28;20133;-67
2022/06/26 00:31:45;;;;;;;12.30;7.70;;;;;;;16.68;54.46;100367.72;5042121;28;20124;-68
2022/06/26 00:34:12;;;;;;;9.48;7.47;;;;;;;16.58;54.61;100360.38;5039459;28;20535;-67
2022/06/26 00:36:39;;;;;;;10.68;7.80;;;;;;;16.43;54.73;100333.47;5037024;28;20041;-66
2022/06/26 00:39:06;;;;;;;13.05;8.35;;;;;;;16.55;54.96;100359.06;5045537;28;20080;-66
2022/06/26 00:41:33;;;;;;;11.90;7.45;;;;;;;16.59;54.93;100356.44;5046328;28;20124;-67
2022/06/26 00:44:00;;;;;;;8.70;7.28;;;;;;;16.55;54.94;100356.25;5047237;28;20084;-67
2022/06/26 00:46:27;;;;;;;10.25;9.15;;;;;;;16.49;55.08;100345.44;5043083;28;20139;-65
2022/06/26 00:48:54;;;;;;;8.35;7.65;;;;;;;16.51;55.01;100349.63;5045253;28;20049;-67
2022/06/26 00:51:21;;;;;;;8.15;6.82;;;;;;;16.49;55.20;100334.19;5040113;28;20633;-66
2022/06/26 00:53:48;;;;;;;7.97;7.15;;;;;;;16.29;55.33;100302.59;5041353;28;20148;-66
2022/06/26 00:56:15;;;;;;;8.55;7.82;;;;;;;16.48;55.08;100332.53;5051203;28;20148;-67
2022/06/26 00:58:42;;;;;;;8.63;7.93;;;;;;;16.35;55.22;100312.56;5034013;28;20126;-68
2022/06/26 01:01:09;;;;;;;8.20;7.40;;;;;;;16.47;54.83;100330.84;5040433;28;20131;-69
2022/06/26 01:03:36;;;;;;;10.55;9.52;;;;;;;16.45;55.05;100334.00;5042145;28;20085;-67
2022/06/26 01:06:06;;;;;;;10.90;9.60;;;;;;;16.49;55.32;100323.72;5042923;28;20129;-68
2022/06/26 01:08:36;;;;;;;14.88;8.85;;;;;;;16.40;55.23;100319.22;5044435;28;20084;-68
2022/06/26 01:11:17;;;;;;;10.75;9.60;;;;;;;16.38;55.48;100304.63;5046094;28;20498;-69
2022/06/26 01:13:49;;;;;;;9.38;8.77;;;;;;;16.49;55.10;100328.53;5041389;28;20049;-68
2022/06/26 01:16:17;;;;;;;11.25;10.25;;;;;;;16.41;55.49;100316.09;5037163;28;20132;-68
2022/06/26 01:18:48;;;;;;;8.68;7.95;;;;;;;16.44;55.54;100320.22;5049234;28;20076;-68
2022/06/26 01:21:17;;;;;;;10.25;9.20;;;;;;;16.38;55.50;100315.91;5046054;28;20059;-68
2022/06/26 01:23:47;;;;;;;9.18;8.07;;;;;;;16.08;55.50;100267.72;5050732;28;20049;-68
2022/06/26 01:26:14;;;;;;;9.48;8.70;;;;;;;16.27;55.56;100299.28;5032731;28;20687;-66
2022/06/26 01:28:41;;;;;;;9.43;8.50;;;;;;;16.36;55.47;100324.66;5042060;28;20128;-66
2022/06/26 01:31:08;;;;;;;8.70;7.88;;;;;;;16.33;55.64;100334.59;5041794;28;20136;-66
2022/06/26 01:33:36;;;;;;;8.32;7.72;;;;;;;16.31;55.57;100328.47;5035706;28;20059;-66
2022/06/26 01:36:06;;;;;;;9.25;8.32;;;;;;;16.27;55.98;100318.16;5039346;28;20080;-67
2022/06/26 01:38:33;;;;;;;12.38;8.50;;;;;;;16.25;55.96;100326.94;5038973;28;20132;-67
2022/06/26 01:41:00;;;;;;;8.50;7.75;;;;;;;16.11;55.80;100306.50;5050605;28;20079;-68
2022/06/26 01:43:29;;;;;;;9.77;8.80;;;;;;;16.19;55.80;100314.16;5019278;28;20088;-68
2022/06/26 01:45:58;;;;;;;8.97;8.10;;;;;;;16.17;56.21;100319.28;5043548;28;20088;-68
2022/06/26 01:48:27;;;;;;;9.93;7.65;;;;;;;16.14;56.20;100317.13;5041212;28;20054;-69
2022/06/26 01:50:55;;;;;;;8.98;8.07;;;;;;;16.13;56.08;100318.25;5038105;28;20053;-69
2022/06/26 01:53:23;;;;;;;7.97;7.30;;;;;;;16.09;56.18;100322.88;5042418;28;20380;-67
2022/06/26 01:55:50;;;;;;;9.10;7.78;;;;;;;15.88;56.52;100302.88;5051062;28;20483;-67
2022/06/26 01:58:17;;;;;;;10.75;9.70;;;;;;;16.08;56.37;100329.69;5046873;28;20542;-67
2022/06/26 02:00:46;;;;;;;8.27;7.53;;;;;;;16.13;56.39;100326.69;5043025;28;20103;-67
2022/06/26 02:03:15;;;;;;;8.02;7.30;;;;;;;16.09;56.13;100317.25;5041039;28;20124;-67
2022/06/26 02:05:42;;;;;;;9.05;7.78;;;;;;;16.15;56.14;100329.22;5039317;28;20088;-67
2022/06/26 02:08:09;;;;;;;8.82;8.07;;;;;;;16.16;56.03;100322.41;5049006;28;20124;-68
2022/06/26 02:13:37;;;;;;;10.18;8.10;;;;;;;15.91;56.63;100295.78;5036927;28;20081;-68
2022/06/26 02:16:07;;;;;;;8.40;7.85;;;;;;;16.03;56.54;100299.66;5044664;28;20049;-67
2022/06/26 02:18:34;;;;;;;;;;;;;;;15.93;56.70;100307.53;5041557;28;20060;-67
2022/06/26 02:21:01;;;;;;;9.67;8.70;;;;;;;15.98;56.41;100294.16;5047880;28;20398;-67
2022/06/26 02:23:28;;;;;;;8.35;7.75;;;;;;;15.96;56.40;100287.19;5045728;28;20073;-68
2022/06/26 02:25:55;;;;;;;9.88;7.97;;;;;;;16.03;56.35;100307.25;5044807;28;20141;-67
2022/06/26 02:28:23;;;;;;;8.80;8.10;;;;;;;15.94;56.43;100281.06;5048528;28;20476;-69
2022/06/26 02:30:50;;;;;;;10.43;8.48;;;;;;;15.86;56.64;100269.44;5042232;28;20481;-69
2022/06/26 02:33:19;;;;;;;11.48;8.27;;;;;;;15.90;56.72;100272.44;5035034;28;20080;-69
2022/06/26 02:35:47;;;;;;;13.07;8.50;;;;;;;16.04;56.44;100289.22;5045671;28;20127;-69
2022/06/26 02:38:15;;;;;;;11.02;8.38;;;;;;;16.13;56.80;100295.72;5046120;28;20056;-68
2022/06/26 02:40:43;;;;;;;9.90;8.95;;;;;;;16.15;56.80;100286.97;5047228;28;20531;-68
2022/06/26 02:43:10;;;;;;;9.23;8.32;;;;;;;16.17;56.50;100296.75;5035594;28;20129;-69
2022/06/26 02:45:37;;;;;;;8.55;7.68;;;;;;;16.15;56.67;100298.22;5046441;28;20128;-68
2022/06/26 02:48:04;;;;;;;12.43;8.27;;;;;;;16.15;56.64;100290.59;5040783;28;20048;-68
2022/06/26 02:50:31;;;;;;;8.93;7.68;;;;;;;16.19;56.77;100291.59;5036083;28;20133;-67
2022/06/26 02:52:58;;;;;;;14.70;7.68;;;;;;;15.96;56.87;100259.03;5042082;28;20083;-68
2022/06/26 02:55:25;;;;;;;11.43;7.68;;;;;;;16.08;56.66;100284.59;5048949;28;20566;-67
2022/06/26 02:57:52;;;;;;;10.52;7.40;;;;;;;15.80;56.51;100242.56;5048551;28;20119;-69
2022/06/26 03:00:19;;;;;;;8.93;7.90;;;;;;;16.16;56.67;100285.78;5046286;28;20140;-69
2022/06/26 03:02:47;;;;;;;8.52;7.20;;;;;;;16.21;56.35;100289.31;5031750;28;20144;-69
2022/06/26 03:05:15;;;;;;;7.55;7.05;;;;;;;16.22;56.51;100279.69;5041855;28;20051;-69
2022/06/26 03:07:42;;;;;;;9.60;8.23;;;;;;;16.19;56.65;100285.16;5045271;28;20128;-69
2022/06/26 03:10:09;;;;;;;11.80;7.77;;;;;;;15.94;56.46;100255.72;5045360;28;20474;-68
2022/06/26 03:12:47;;;;;;;8.07;7.40;;;;;;;15.90;56.94;100260.31;5041257;28;20155;-68
2022/06/26 03:15:14;;;;;;;10.13;8.65;;;;;;;15.86;57.06;100271.38;5032294;28;20089;-68
2022/06/26 03:17:41;;;;;;;9.53;8.47;;;;;;;15.83;57.32;100267.25;5052005;28;20087;-69
2022/06/26 03:20:14;;;;;;;9.00;7.97;;;;;;;15.94;57.33;100272.63;5040693;28;20087;-68
2022/06/26 03:22:41;;;;;;;10.73;8.45;;;;;;;15.91;57.48;100284.53;5031811;28;20052;-68
2022/06/26 03:25:08;;;;;;;8.63;7.93;;;;;;;15.90;57.51;100277.19;5032223;28;20058;-69
2022/06/26 03:27:36;;;;;;;8.75;7.93;;;;;;;15.85;57.40;100287.47;5048369;28;20073;-69
2022/06/26 03:30:07;;;;;;;8.00;7.10;;;;;;;15.76;57.43;100280.97;5049378;28;20053;-68
2022/06/26 03:32:34;;;;;;;8.77;7.93;;;;;;;15.69;57.61;100282.56;5045217;28;20088;-67
2022/06/26 03:35:02;;;;;;;10.98;7.68;;;;;;;15.53;57.86;100273.66;5041828;28;20527;-68
2022/06/26 03:37:29;;;;;;;12.03;8.30;;;;;;;15.49;57.98;100272.66;5037310;28;20125;-68
2022/06/26 03:39:56;;;;;;;9.50;7.77;;;;;;;15.54;58.09;100287.41;5043018;28;20085;-67
2022/06/26 03:42:22;;;;;;;9.77;7.67;;;;;;;15.53;57.95;100284.91;5039637;28;20048;-67
2022/06/26 03:44:49;;;;;;;8.13;7.37;;;;;;;15.34;58.16;100249.34;5052687;28;20415;-67
2022/06/26 03:47:16;;;;;;;7.97;7.28;;;;;;;15.49;58.15;100267.84;5042386;28;20128;-67
2022/06/26 03:49:43;;;;;;;11.17;10.20;;;;;;;15.15;58.35;100212.97;5041358;28;20092;-67
2022/06/26 03:52:10;;;;;;;8.67;7.87;;;;;;;15.55;58.14;100277.78;5044366;28;20471;-67
2022/06/26 03:54:37;;;;;;;7.83;7.10;;;;;;;15.57;58.07;100267.06;5035658;28;20479;-68
2022/06/26 03:57:04;;;;;;;13.37;7.17;;;;;;;15.53;58.02;100242.69;5040513;28;20050;-67
2022/06/26 03:59:32;;;;;;;8.47;7.17;;;;;;;15.65;57.91;100260.63;5038196;28;20088;-68
2022/06/26 04:01:59;;;;;;;7.93;7.33;;;;;;;15.41;57.88;100215.97;5037827;28;20139;-68
2022/06/26 04:04:26;;;;;;;8.68;7.45;;;;;;;15.77;57.64;100273.34;5039393;28;20088;-69
2022/06/26 04:06:53;;;;;;;8.63;7.23;;;;;;;15.75;57.44;100259.56;5043262;28;20139;-69
2022/06/26 04:09:20;;;;;;;11.82;7.28;;;;;;;15.71;57.34;100255.75;5053700;28;20140;-68
2022/06/26 04:11:46;;;;;;;8.98;8.20;;;;;;;15.62;57.42;100237.94;5043230;28;20053;-67
2022/06/26 04:14:13;;;;;;;9.63;7.07;;;;;;;15.77;57.31;100268.53;5042076;28;20133;-69
2022/06/26 04:16:40;;;;;;;8.60;7.90;;;;;;;15.69;57.23;100249.63;5038127;28;20136;-68
2022/06/26 04:19:07;;;;;;;8.18;7.18;;;;;;;15.75;57.11;100253.13;5041583;28;20056;-68
2022/06/26 04:21:34;;;;;;;7.97;7.27;;;;;;;15.87;57.32;100271.09;5042845;28;20098;-68
2022/06/26 04:24:01;;;;;;;8.43;7.82;;;;;;;15.92;57.54;100274.91;5039800;28;20913;-68
2022/06/26 04:26:28;;;;;;;8.32;7.65;;;;;;;15.95;57.24;100261.00;5034130;28;20136;-68
2022/06/26 04:28:55;;;;;;;9.27;8.40;;;;;;;15.96;56.72;100242.94;5044621;28;20132;-68
2022/06/26 04:31:22;;;;;;;7.75;6.97;;;;;;;16.27;56.35;100276.75;5036359;28;20080;-67
2022/06/26 04:33:49;;;;;;;7.87;6.70;;;;;;;16.24;55.84;100245.53;5069505;28;20110;-67
2022/06/26 04:36:16;;;;;;;8.80;7.27;;;;;;;16.38;56.06;100271.63;5036870;28;20064;-68
2022/06/26 04:38:42;;;;;;;7.95;6.60;;;;;;;16.34;55.93;100260.19;5028505;28;20499;-67
2022/06/26 04:43:55;;;;;;;8.45;7.60;;;;;;;16.32;55.62;100254.03;5035101;28;20045;-66
2022/06/26 04:46:21;;;;;;;9.48;6.38;;;;;;;16.45;55.62;100272.00;5044744;28;20540;-66
2022/06/26 04:48:49;;;;;;;7.72;7.00;;;;;;;16.51;55.44;100281.09;5043810;28;20048;-69
2022/06/26 04:51:16;;;;;;;6.95;6.32;;;;;;;16.51;55.97;100283.94;5044101;28;20142;-70
2022/06/26 04:53:43;;;;;;;7.32;6.82;;;;;;;16.49;55.86;100275.00;5042357;28;20128;-69
2022/06/26 04:56:09;;;;;;;7.13;6.50;;;;;;;16.50;56.21;100274.66;5044205;28;20065;-70
2022/06/26 04:58:36;;;;;;;9.00;7.72;;;;;;;16.55;56.34;100282.97;5044848;28;20081;-69
2022/06/26 05:01:04;;;;;;;7.82;7.18;;;;;;;16.54;56.40;100286.09;5039406;28;20135;-67
2022/06/26 05:03:32;;;;;;;16.83;7.47;;;;;;;16.33;56.39;100252.88;5036824;28;20081;-68
2022/06/26 05:06:05;;;;;;;8.52;6.93;;;;;;;16.45;56.54;100285.25;5034974;28;20057;-67
2022/06/26 05:08:32;;;;;;;7.65;6.85;;;;;;;16.45;56.25;100286.09;5037665;28;20076;-67
2022/06/26 05:10:59;;;;;;;8.32;7.38;;;;;;;16.35;56.38;100281.56;5037436;28;20145;-67
2022/06/26 05:13:26;;;;;;;9.32;7.10;;;;;;;16.24;56.63;100260.50;5036125;28;20045;-67
2022/06/26 05:15:52;;;;;;;7.47;6.75;;;;;;;16.37;56.30;100288.84;5034574;28;20127;-67
2022/06/26 05:18:20;;;;;;;7.50;6.72;;;;;;;16.34;56.32;100287.50;5036822;28;20037;-67
2022/06/26 05:20:46;;;;;;;7.60;6.90;;;;;;;16.28;56.21;100284.03;5034656;28;20496;-66
2022/06/26 05:23:14;;;;;;;7.35;6.78;;;;;;;16.25;56.27;100273.41;5035965;28;20128;-67
2022/06/26 05:25:42;;;;;;;11.57;6.60;;;;;;;16.31;56.47;100294.66;5035676;28;20083;-67
2022/06/26 05:28:10;;;;;;;6.72;6.22;;;;;;;16.23;56.07;100281.34;5044742;28;20137;-68
2022/06/26 05:30:37;;;;;;;7.82;6.40;;;;;;;16.21;55.96;100277.22;5044071;28;20080;-67
2022/06/26 05:33:04;;;;;;;7.13;6.53;;;;;;;16.19;56.20;100294.44;5037101;28;20129;-69
2022/06/26 05:35:31;;;;;;;7.45;6.93;;;;;;;16.17;56.35;100291.13;5032616;28;20052;-68
2022/06/26 05:37:58;;;;;;;7.95;7.18;;;;;;;16.14;56.32;100305.84;5037023;28;20128;-68
2022/06/26 05:40:25;;;;;;;8.27;7.55;;;;;;;16.05;56.62;100290.88;5034744;28;20516;-68
2022/06/26 05:42:56;;;;;;;9.57;7.97;;;;;;;15.98;57.06;100296.16;5035561;28;20091;-68
2022/06/26 05:45:23;;;;;;;7.47;6.50;;;;;;;15.84;57.36;100285.81;5041627;28;20131;-68
2022/06/26 05:47:50;;;;;;;7.80;7.10;;;;;;;15.91;57.02;100295.78;5031695;28;20136;-67
2022/06/26 05:50:17;;;;;;;8.07;7.03;;;;;;;15.88;57.57;100291.63;5040385;28;20127;-71
2022/06/26 05:52:44;;;;;;;10.32;7.03;;;;;;;16.15;56.94;100301.03;5036145;28;20132;-68
2022/06/26 05:55:15;;;;;;;8.15;6.32;;;;;;;16.26;56.44;100283.50;5034341;28;20050;-68
2022/06/26 05:57:42;;;;;;;9.18;6.70;;;;;;;16.40;56.61;100296.66;5037499;28;20053;-67
2022/06/26 06:00:11;;;;;;;11.00;9.98;;;;;;;16.60;56.34;100301.72;5033222;28;20062;-68
2022/06/26 06:02:39;;;;;;;7.17;6.47;;;;;;;16.61;56.27;100269.53;5041115;28;20053;-69
2022/06/26 06:05:07;;;;;;;10.05;7.70;;;;;;;16.81;55.74;100280.22;5047303;28;20442;-68
2022/06/26 06:07:36;;;;;;;7.72;6.80;;;;;;;17.05;55.67;100293.03;5045889;28;20594;-68
2022/06/26 06:10:08;;;;;;;9.05;7.30;;;;;;;17.31;55.55;100297.88;5045723;28;20151;-68
2022/06/26 06:12:35;;;;;;;7.07;6.55;;;;;;;17.38;55.25;100264.31;5032840;28;20136;-67
2022/06/26 06:15:03;;;;;;;8.68;6.57;;;;;;;17.78;55.16;100293.22;5034934;28;20072;-68
2022/06/26 06:17:36;;;;;;;7.80;7.00;;;;;;;17.97;55.23;100293.63;5034225;28;20132;-67
2022/06/26 06:20:07;;;;;;;7.50;6.70;;;;;;;18.13;54.78;100285.44;5037890;28;20471;-68
2022/06/26 06:22:34;;;;;;;10.45;7.47;;;;;;;18.41;54.72;100296.31;5039039;28;20144;-69
2022/06/26 06:25:01;;;;;;;7.60;6.15;;;;;;;18.55;54.13;100294.06;5030490;28;20140;-68
2022/06/26 06:27:37;;;;;;;10.32;7.05;;;;;;;18.82;53.96;100280.66;5031691;28;20049;-69
2022/06/26 06:30:08;;;;;;;7.85;7.05;;;;;;;19.03;53.73;100280.66;5032922;28;20079;-68
2022/06/26 06:32:35;;;;;;;9.98;7.70;;;;;;;19.27;53.60;100302.63;5031874;28;20127;-68
2022/06/26 06:35:03;;;;;;;9.07;7.93;;;;;;;19.26;53.07;100276.31;5039734;28;20118;-69
2022/06/26 06:37:32;;;;;;;;;;;;;;;19.56;53.49;100305.38;5034889;28;20052;-68
2022/06/26 06:39:59;;;;;;;8.00;6.82;;;;;;;19.74;52.80;100308.91;5033721;28;20015;-68
2022/06/26 06:42:26;;;;;;;8.10;7.47;;;;;;;20.00;52.26;100322.81;5035735;28;20080;-68
2022/06/26 06:44:53;;;;;;;9.48;7.72;;;;;;;20.15;51.66;100311.97;5043445;28;20139;-68
2022/06/26 06:47:20;;;;;;;8.50;7.32;;;;;;;20.30;51.26;100320.59;5046442;28;20127;-69
2022/06/26 06:49:47;;;;;;;9.05;8.18;;;;;;;20.23;51.48;100303.34;5038888;28;20515;-68
2022/06/26 06:52:14;;;;;;;8.30;7.40;;;;;;;20.66;50.87;100315.38;5036489;28;21319;-69
2022/06/26 06:54:41;;;;;;;8.27;7.47;;;;;;;20.92;50.17;100307.31;5034734;28;20128;-69
2022/06/26 06:57:08;;;;;;;7.65;7.10;;;;;;;21.29;49.58;100329.94;5037705;28;20500;-69
2022/06/26 06:59:35;;;;;;;10.20;9.32;;;;;;;21.49;48.87;100306.25;5034539;28;20522;-70
2022/06/26 07:02:02;;;;;;;7.95;7.35;;;;;;;21.92;48.06;100344.47;5033358;28;20131;-69
2022/06/26 07:04:29;;;;;;;7.00;6.35;;;;;;;22.33;47.57;100335.88;5030307;28;20057;-69
2022/06/26 07:06:57;;;;;;;7.40;6.80;;;;;;;22.57;47.10;100315.75;5033596;28;20088;-69
2022/06/26 07:09:24;;;;;;;8.38;6.35;;;;;;;23.13;46.07;100340.34;5031692;28;20073;-71
2022/06/26 07:11:51;;;;;;;7.45;6.20;;;;;;;23.45;45.46;100341.06;5034242;28;20085;-77
2022/06/26 07:14:23;;;;;;;7.60;6.80;;;;;;;23.52;45.12;100329.84;5037958;28;20056;-77
2022/06/26 07:16:49;;;;;;;7.07;6.47;;;;;;;23.93;44.18;100349.44;5032457;28;20066;-68
2022/06/26 07:19:17;;;;;;;10.15;7.70;;;;;;;23.79;43.83;100324.31;5033378;28;20559;-69
2022/06/26 07:21:44;;;;;;;11.85;7.43;;;;;;;24.10;44.03;100355.50;5031182;28;20105;-68
2022/06/26 07:24:11;;;;;;;11.57;7.75;;;;;;;24.24;43.34;100346.41;5036442;28;20103;-68
2022/06/26 07:26:39;;;;;;;7.78;7.07;;;;;;;24.42;42.82;100348.81;5032249;28;20137;-68
2022/06/26 07:29:08;;;;;;;8.88;8.07;;;;;;;24.59;42.95;100345.44;5030091;28;20507;-68
2022/06/26 07:31:35;;;;;;;8.20;7.70;;;;;;;24.79;42.33;100344.16;5035782;28;20137;-69
2022/06/26 07:34:17;;;;;;;8.65;7.85;;;;;;;24.97;41.33;100352.19;5039965;28;20115;-69
2022/06/26 07:36:46;;;;;;;8.05;7.25;;;;;;;25.17;41.62;100358.66;5038029;28;20053;-69
2022/06/26 07:39:15;;;;;;;7.45;6.68;;;;;;;25.39;41.10;100365.53;5043285;28;20381;-69
2022/06/26 07:41:43;;;;;;;7.57;6.88;;;;;;;25.57;40.67;100372.31;5034777;28;20084;-69
2022/06/26 07:44:11;;;;;;;7.72;7.03;;;;;;;25.68;40.04;100376.16;5032090;28;20180;-69
2022/06/26 07:46:38;;;;;;;7.95;7.25;;;;;;;25.80;39.78;100371.44;5030442;28;20136;-67
2022/06/26 07:49:06;;;;;;;7.28;6.60;;;;;;;25.95;39.46;100365.50;5031970;28;20080;-68
2022/06/26 07:51:34;;;;;;;7.35;6.63;;;;;;;25.85;39.23;100357.63;5029749;28;20049;-68
2022/06/26 07:54:02;;;;;;;7.22;6.72;;;;;;;25.58;39.98;100362.53;5031385;28;20096;-68
2022/06/26 07:56:30;;;;;;;7.47;6.88;;;;;;;25.32;39.73;100345.41;5029069;28;20143;-68
2022/06/26 07:58:57;;;;;;;7.75;7.15;;;;;;;25.45;39.59;100358.25;5033573;28;20077;-67
2022/06/26 08:01:24;;;;;;;6.88;6.38;;;;;;;25.04;39.50;100355.97;5031772;28;20077;-68
2022/06/26 08:03:52;;;;;;;8.15;7.55;;;;;;;25.00;39.68;100362.84;5042124;28;20461;-67
2022/06/26 08:06:20;;;;;;;9.30;8.48;;;;;;;24.91;39.36;100348.00;5034835;28;20356;-67
2022/06/26 08:08:47;;;;;;;6.82;6.32;;;;;;;25.31;38.64;100352.34;5031406;28;20053;-67
2022/06/26 08:11:14;;;;;;;7.63;6.90;;;;;;;25.67;38.14;100347.94;5030304;28;20053;-68
2022/06/26 08:13:41;;;;;;;8.18;7.68;;;;;;;26.10;38.00;100357.09;5029664;28;20132;-67
2022/06/26 08:16:08;;;;;;;6.63;6.22;;;;;;;26.14;37.49;100350.19;5039267;28;20456;-68
2022/06/26 08:18:35;;;;;;;7.03;6.53;;;;;;;26.12;37.32;100351.78;5040979;28;20500;-66
2022/06/26 08:22:00;;;;;;;7.93;7.35;;;;;;;26.04;37.37;100365.19;5043908;28;20052;-68
2022/06/26 08:23:50;;;;;;;6.78;6.20;;;;;;;26.12;37.21;100360.38;5049158;28;20053;-67
2022/06/26 08:26:17;;;;;;;6.63;6.05;;;;;;;25.95;36.81;100333.22;5036448;28;20172;-67
2022/06/26 08:28:44;;;;;;;7.30;6.65;;;;;;;25.34;37.35;100300.13;5033654;28;20080;-67
2022/06/26 08:31:11;;;;;;;6.60;5.97;;;;;;;25.42;37.59;100350.44;5042826;28;20136;-68
2022/06/26 08:33:38;;;;;;;6.93;6.32;;;;;;;25.28;37.27;100323.31;5048630;28;20053;-67
2022/06/26 08:36:05;;;;;;;6.75;6.25;;;;;;;25.55;37.12;100353.91;5054987;28;20077;-67
2022/06/26 08:38:32;;;;;;;8.38;7.78;;;;;;;25.89;37.06;100360.53;5050627;28;20044;-67
2022/06/26 08:41:00;;;;;;;9.73;6.90;;;;;;;25.96;36.76;100334.84;5033135;28;20096;-69
2022/06/26 08:43:28;;;;;;;7.45;6.95;;;;;;;26.02;36.38;100361.91;5034541;28;20408;-68
2022/06/26 08:46:03;;;;;;;6.88;6.30;;;;;;;25.90;36.47;100350.72;5036559;28;20171;-67
2022/06/26 08:48:40;;;;;;;6.95;6.28;;;;;;;26.03;36.41;100360.69;5034390;28;20447;-68
2022/06/26 08:51:08;;;;;;;6.95;6.50;;;;;;;26.07;36.23;100363.59;5050663;28;20095;-68
2022/06/26 08:53:36;;;;;;;6.95;6.45;;;;;;;26.15;36.17;100371.88;5042380;28;20053;-68
2022/06/26 08:56:03;;;;;;;7.35;6.80;;;;;;;26.04;35.68;100356.59;5046684;28;20112;-68
2022/06/26 08:58:30;;;;;;;9.52;8.93;;;;;;;26.49;35.02;100357.53;5043441;28;20132;-67
2022/06/26 09:00:57;;;;;;;8.32;7.63;;;;;;;26.86;34.85;100354.59;5049068;28;20080;-67
2022/06/26 09:03:24;;;;;;;7.25;6.75;;;;;;;26.93;34.89;100353.84;5043190;28;20053;-68
2022/06/26 09:05:51;;;;;;;7.20;6.47;;;;;;;27.07;34.78;100353.94;5050282;28;20107;-68
2022/06/26 09:08:20;;;;;;;7.00;6.60;;;;;;;27.50;34.29;100357.13;5043578;28;20077;-68
2022/06/26 09:10:49;;;;;;;7.70;7.13;;;;;;;27.74;34.00;100349.06;5047548;28;20084;-68
2022/06/26 09:13:16;;;;;;;7.82;7.32;;;;;;;27.94;33.89;100347.53;5052686;28;20450;-68
2022/06/26 09:15:43;;;;;;;7.22;6.72;;;;;;;28.18;33.50;100350.91;5051575;28;20135;-68
2022/06/26 09:18:12;;;;;;;8.68;7.90;;;;;;;28.25;33.04;100337.38;5038804;28;20132;-68
2022/06/26 09:20:54;;;;;;;8.93;8.32;;;;;;;28.34;32.88;100332.06;5045204;28;20049;-69
2022/06/26 09:23:22;;;;;;;7.43;6.90;;;;;;;28.62;33.03;100338.31;5042426;28;20055;-67
2022/06/26 09:25:55;;;;;;;7.78;7.15;;;;;;;28.46;32.53;100324.31;5050784;28;20052;-67
2022/06/26 09:28:23;;;;;;;9.32;7.40;;;;;;;28.61;32.07;100330.91;5033357;28;20560;-69
2022/06/26 09:30:53;;;;;;;7.45;6.68;;;;;;;28.66;32.04;100319.00;5040099;28;20084;-67
2022/06/26 09:33:23;;;;;;;7.13;6.72;;;;;;;28.95;31.29;100346.50;5046564;28;20060;-67
2022/06/26 09:35:51;;;;;;;7.72;7.05;;;;;;;28.96;30.90;100339.53;5038760;28;20144;-68
2022/06/26 09:38:26;;;;;;;8.43;7.72;;;;;;;29.04;31.32;100343.25;5034610;28;20522;-68
2022/06/26 09:41:05;;;;;;;8.60;7.90;;;;;;;29.08;31.06;100344.06;5034103;28;20081;-68
2022/06/26 09:43:32;;;;;;;;;;;;;;;28.97;32.63;100346.09;5034573;28;20116;-70
2022/06/26 09:46:07;;;;;;;7.00;6.60;;;;;;;29.11;31.19;100348.16;5039852;28;19943;-68
2022/06/26 09:48:35;;;;;;;6.80;6.40;;;;;;;28.68;31.58;100328.84;5051943;28;20529;-68
2022/06/26 09:51:03;;;;;;;6.55;6.20;;;;;;;28.94;31.26;100356.34;5052565;28;20074;-67
2022/06/26 09:53:31;;;;;;;7.93;7.13;;;;;;;29.27;31.23;100345.69;5053774;28;20091;-68
2022/06/26 09:55:59;;;;;;;8.43;7.88;;;;;;;29.58;30.75;100343.97;5041231;28;20298;-68
2022/06/26 09:58:28;;;;;;;7.47;6.53;;;;;;;29.79;30.42;100353.78;5034023;28;20107;-68
2022/06/26 10:06:32;;;;;;;8.18;7.57;;;;;;;29.85;30.37;100355.81;5044556;28;20144;-68
2022/06/26 10:09:03;;;;;;;6.47;6.07;;;;;;;29.90;30.07;100337.28;5045402;28;20049;-69
2022/06/26 10:11:31;;;;;;;6.05;5.68;;;;;;;29.92;29.97;100346.34;5035829;28;20268;-68
2022/06/26 10:14:05;;;;;;;6.80;6.38;;;;;;;29.86;30.23;100348.81;5034167;28;20085;-67
2022/06/26 10:16:56;;;;;;;7.30;6.75;;;;;;;30.07;29.51;100358.59;5034390;28;20077;-68
2022/06/26 10:19:46;;;;;;;7.25;6.72;;;;;;;30.31;29.38;100360.56;5033405;28;20055;-69
2022/06/26 10:22:13;;;;;;;8.10;6.23;;;;;;;30.62;29.56;100358.69;5033617;28;20081;-67
2022/06/26 10:25:03;;;;;;;7.20;6.80;;;;;;;30.87;29.62;100360.59;5033423;28;20348;-67
2022/06/26 10:27:35;;;;;;;6.78;6.32;;;;;;;30.88;29.61;100360.19;5033371;28;20080;-68
2022/06/26 10:30:10;;;;;;;10.38;9.77;;;;;;;30.96;29.37;100357.25;5065580;28;20045;-67
2022/06/26 10:32:37;;;;;;;11.20;10.50;;;;;;;31.02;28.80;100349.78;5032694;28;20447;-68
2022/06/26 10:35:05;;;;;;;7.32;6.72;;;;;;;30.99;29.15;100342.78;5048049;28;20087;-68
2022/06/26 10:37:40;;;;;;;7.75;6.97;;;;;;;31.16;28.55;100367.75;5031695;28;20088;-68
2022/06/26 10:43:11;;;;;;;7.70;7.10;;;;;;;30.89;28.94;100358.13;5032909;28;20472;-68
2022/06/26 10:45:40;;;;;;;9.38;8.60;;;;;;;30.39;29.52;100373.69;5065069;28;20460;-67
2022/06/26 10:48:19;;;;;;;7.97;7.28;;;;;;;29.68;30.28;100360.41;5033706;28;20056;-67
2022/06/26 10:51:02;;;;;;;6.95;6.35;;;;;;;29.27;30.58;100360.06;5041819;28;20476;-68
2022/06/26 10:53:35;;;;;;;6.90;6.30;;;;;;;29.18;30.67;100359.66;5032826;28;20500;-68
2022/06/26 10:56:05;;;;;;;6.75;6.32;;;;;;;28.77;30.75;100358.00;5032895;28;20136;-67
2022/06/26 10:58:37;;;;;;;7.55;6.95;;;;;;;28.33;31.16;100372.66;5031677;28;20072;-68
2022/06/26 11:01:08;;;;;;;8.98;8.02;;;;;;;28.24;31.64;100363.63;5031438;28;20049;-67
2022/06/26 11:03:36;;;;;;;7.78;7.38;;;;;;;28.49;31.20;100340.75;5036862;28;20143;-68
2022/06/26 11:06:06;;;;;;;9.93;9.23;;;;;;;28.72;31.09;100344.06;5033219;28;20088;-68
2022/06/26 11:08:37;;;;;;;7.82;7.32;;;;;;;28.58;31.56;100350.59;5043649;28;20605;-67
2022/06/26 11:11:10;;;;;;;7.25;6.65;;;;;;;28.44;31.38;100353.44;5031295;28;20132;-67
2022/06/26 11:13:51;;;;;;;7.53;6.82;;;;;;;28.20;31.70;100363.59;5035321;28;20139;-68
2022/06/26 11:16:31;;;;;;;8.52;6.38;;;;;;;27.88;31.43;100354.91;5032254;28;20057;-67
2022/06/26 11:18:59;;;;;;;11.73;10.63;;;;;;;27.72;32.09;100357.25;5042747;28;20045;-67
2022/06/26 11:21:29;;;;;;;8.32;7.53;;;;;;;27.45;32.12;100333.75;5040220;28;20077;-67
2022/06/26 11:23:56;;;;;;;8.43;7.05;;;;;;;27.20;32.71;100350.78;5040487;28;20076;-67
2022/06/26 11:26:23;;;;;;;7.30;6.80;;;;;;;27.26;32.78;100372.13;5040068;28;20095;-67
2022/06/26 11:29:02;;;;;;;8.75;6.85;;;;;;;27.09;32.81;100365.03;5024183;28;20071;-68
2022/06/26 11:31:31;;;;;;;8.63;7.80;;;;;;;26.99;33.47;100380.09;5030695;28;20052;-67
2022/06/26 11:34:13;;;;;;;8.52;7.68;;;;;;;26.88;33.75;100380.00;5033270;28;20041;-68
2022/06/26 11:36:58;;;;;;;7.03;6.50;;;;;;;26.79;33.78;100370.91;5030656;28;20859;-67
2022/06/26 11:39:39;;;;;;;11.45;7.50;;;;;;;26.74;34.03;100374.97;5034089;28;20103;-68
2022/06/26 11:42:22;;;;;;;8.30;7.53;;;;;;;26.68;34.09;100385.97;5039622;28;20570;-70
2022/06/26 11:44:51;;;;;;;7.65;6.95;;;;;;;26.65;34.20;100389.59;5036098;28;20115;-67
2022/06/26 11:47:20;;;;;;;7.15;6.60;;;;;;;26.45;33.88;100362.38;5038416;28;20087;-67